sensor_id;sensor_type;location;lat;lon;timestamp;temperature;humidity
2435;DHT22;1228;51.022;6.764;2023-07-13T00:01:16;16.40;99.90
2435;DHT22;1228;51.022;6.764;2023-07-13T00:03:42;16.40;99.90
2435;DHT22;1228;51.022;6.764;2023-07-13T00:06:08;16.40;99.90
2435;DHT22;1228;51.022;6.764;2023-07-13T00:08:34;16.30;99.90
2435;DHT22;1228;51.022;6.764;2023-07-13T00:11:01;16.30;99.90
2435;DHT22;1228;51.022;6.764;2023-07-13T00:13:28;16.20;99.90
2435;DHT22;1228;51.022;6.764;2023-07-13T00:15:54;16.30;99.90
2435;DHT22;1228;51.022;6.764;2023-07-13T00:18:21;16.30;99.90
2435;DHT22;1228;51.022;6.764;2023-07-13T00:20:47;16.20;99.90
2435;DHT22;1228;51.022;6.764;2023-07-13T00:23:13;16.20;99.90
2435;DHT22;1228;51.022;6.764;2023-07-13T00:25:38;16.20;99.90
2435;DHT22;1228;51.022;6.764;2023-07-13T00:28:04;16.10;99.90
2435;DHT22;1228;51.022;6.764;2023-07-13T00:30:30;16.10;99.90
2435;DHT22;1228;51.022;6.764;2023-07-13T00:32:55;16.10;99.90
2435;DHT22;1228;51.022;6.764;2023-07-13T00:35:21;16.10;99.90
2435;DHT22;1228;51.022;6.764;2023-07-13T00:37:46;16.10;99.90
2435;DHT22;1228;51.022;6.764;2023-07-13T00:40:13;16.10;99.90
2435;DHT22;1228;51.022;6.764;2023-07-13T00:42:40;16.10;99.90
2435;DHT22;1228;51.022;6.764;2023-07-13T00:47:38;16.00;99.90
2435;DHT22;1228;51.022;6.764;2023-07-13T00:50:09;15.90;99.90
2435;DHT22;1228;51.022;6.764;2023-07-13T00:52:37;15.90;99.90
2435;DHT22;1228;51.022;6.764;2023-07-13T00:55:03;15.90;99.90
2435;DHT22;1228;51.022;6.764;2023-07-13T00:57:29;15.80;99.90
2435;DHT22;1228;51.022;6.764;2023-07-13T00:59:58;15.80;99.90
2435;DHT22;1228;51.022;6.764;2023-07-13T01:02:25;15.80;99.90
2435;DHT22;1228;51.022;6.764;2023-07-13T01:04:50;15.80;99.90
2435;DHT22;1228;51.022;6.764;2023-07-13T01:07:16;15.80;99.90
2435;DHT22;1228;51.022;6.764;2023-07-13T01:09:43;15.80;99.90
2435;DHT22;1228;51.022;6.764;2023-07-13T01:12:11;15.80;99.90
2435;DHT22;1228;51.022;6.764;2023-07-13T01:14:37;15.80;99.90
2435;DHT22;1228;51.022;6.764;2023-07-13T01:17:03;15.80;99.90
2435;DHT22;1228;51.022;6.764;2023-07-13T01:19:39;15.80;99.90
2435;DHT22;1228;51.022;6.764;2023-07-13T01:22:08;15.80;99.90
2435;DHT22;1228;51.022;6.764;2023-07-13T01:24:35;15.80;99.90
2435;DHT22;1228;51.022;6.764;2023-07-13T01:27:02;15.80;99.90
2435;DHT22;1228;51.022;6.764;2023-07-13T01:29:28;15.70;99.90
2435;DHT22;1228;51.022;6.764;2023-07-13T01:31:53;15.70;99.90
2435;DHT22;1228;51.022;6.764;2023-07-13T01:34:19;15.60;99.90
2435;DHT22;1228;51.022;6.764;2023-07-13T01:36:44;15.70;99.90
2435;DHT22;1228;51.022;6.764;2023-07-13T01:39:10;15.60;99.90
2435;DHT22;1228;51.022;6.764;2023-07-13T01:41:35;15.60;99.90
2435;DHT22;1228;51.022;6.764;2023-07-13T01:44:01;15.60;99.90
2435;DHT22;1228;51.022;6.764;2023-07-13T01:46:26;15.50;99.90
2435;DHT22;1228;51.022;6.764;2023-07-13T01:48:52;15.50;99.90
2435;DHT22;1228;51.022;6.764;2023-07-13T01:51:19;15.50;99.90
2435;DHT22;1228;51.022;6.764;2023-07-13T01:53:44;15.40;99.90
2435;DHT22;1228;51.022;6.764;2023-07-13T01:56:11;15.40;99.90
2435;DHT22;1228;51.022;6.764;2023-07-13T01:58:36;15.40;99.90
2435;DHT22;1228;51.022;6.764;2023-07-13T02:01:02;15.40;99.90
2435;DHT22;1228;51.022;6.764;2023-07-13T02:03:27;15.40;99.90
2435;DHT22;1228;51.022;6.764;2023-07-13T02:05:53;15.30;99.90
2435;DHT22;1228;51.022;6.764;2023-07-13T02:08:18;15.30;99.90
2435;DHT22;1228;51.022;6.764;2023-07-13T02:10:44;15.30;99.90
2435;DHT22;1228;51.022;6.764;2023-07-13T02:13:10;15.30;99.90
2435;DHT22;1228;51.022;6.764;2023-07-13T02:15:38;15.30;99.90
2435;DHT22;1228;51.022;6.764;2023-07-13T02:18:05;15.30;99.90
2435;DHT22;1228;51.022;6.764;2023-07-13T02:20:30;15.30;99.90
2435;DHT22;1228;51.022;6.764;2023-07-13T02:22:56;15.30;99.90
2435;DHT22;1228;51.022;6.764;2023-07-13T02:25:21;15.20;99.90
2435;DHT22;1228;51.022;6.764;2023-07-13T02:27:47;15.20;99.90
2435;DHT22;1228;51.022;6.764;2023-07-13T02:30:13;15.20;99.90
2435;DHT22;1228;51.022;6.764;2023-07-13T02:32:39;15.20;99.90
2435;DHT22;1228;51.022;6.764;2023-07-13T02:35:05;15.10;99.90
2435;DHT22;1228;51.022;6.764;2023-07-13T02:37:30;15.10;99.90
2435;DHT22;1228;51.022;6.764;2023-07-13T02:39:56;15.10;99.90
2435;DHT22;1228;51.022;6.764;2023-07-13T02:42:22;15.10;99.90
2435;DHT22;1228;51.022;6.764;2023-07-13T02:44:48;15.00;99.90
2435;DHT22;1228;51.022;6.764;2023-07-13T02:47:15;15.00;99.90
2435;DHT22;1228;51.022;6.764;2023-07-13T02:49:40;15.00;99.90
2435;DHT22;1228;51.022;6.764;2023-07-13T02:52:06;15.00;99.90
2435;DHT22;1228;51.022;6.764;2023-07-13T02:54:32;15.00;99.90
2435;DHT22;1228;51.022;6.764;2023-07-13T02:56:57;15.00;99.90
2435;DHT22;1228;51.022;6.764;2023-07-13T02:59:23;15.00;99.90
2435;DHT22;1228;51.022;6.764;2023-07-13T03:01:49;15.00;99.90
2435;DHT22;1228;51.022;6.764;2023-07-13T03:04:14;15.00;99.90
2435;DHT22;1228;51.022;6.764;2023-07-13T03:06:41;15.00;99.90
2435;DHT22;1228;51.022;6.764;2023-07-13T03:09:07;15.00;99.90
2435;DHT22;1228;51.022;6.764;2023-07-13T03:11:33;15.00;99.90
2435;DHT22;1228;51.022;6.764;2023-07-13T03:13:59;15.10;99.90
2435;DHT22;1228;51.022;6.764;2023-07-13T03:16:24;15.00;99.90
2435;DHT22;1228;51.022;6.764;2023-07-13T03:18:50;15.00;99.90
2435;DHT22;1228;51.022;6.764;2023-07-13T03:21:16;15.00;99.90
2435;DHT22;1228;51.022;6.764;2023-07-13T03:23:42;14.90;99.90
2435;DHT22;1228;51.022;6.764;2023-07-13T03:26:16;14.90;99.90
2435;DHT22;1228;51.022;6.764;2023-07-13T03:28:42;14.90;99.90
2435;DHT22;1228;51.022;6.764;2023-07-13T03:31:19;14.80;99.90
2435;DHT22;1228;51.022;6.764;2023-07-13T03:33:46;14.80;99.90
2435;DHT22;1228;51.022;6.764;2023-07-13T03:36:21;14.80;99.90
2435;DHT22;1228;51.022;6.764;2023-07-13T03:38:49;14.80;99.90
2435;DHT22;1228;51.022;6.764;2023-07-13T03:41:16;14.80;99.90
2435;DHT22;1228;51.022;6.764;2023-07-13T03:43:42;14.80;99.90
2435;DHT22;1228;51.022;6.764;2023-07-13T03:46:08;14.90;99.90
2435;DHT22;1228;51.022;6.764;2023-07-13T03:48:33;14.80;99.90
2435;DHT22;1228;51.022;6.764;2023-07-13T03:50:59;14.80;99.90
2435;DHT22;1228;51.022;6.764;2023-07-13T03:53:25;14.80;99.90
2435;DHT22;1228;51.022;6.764;2023-07-13T03:55:51;14.90;99.90
2435;DHT22;1228;51.022;6.764;2023-07-13T03:58:32;14.90;99.90
2435;DHT22;1228;51.022;6.764;2023-07-13T04:00:58;14.90;99.90
2435;DHT22;1228;51.022;6.764;2023-07-13T04:03:25;15.00;99.90
2435;DHT22;1228;51.022;6.764;2023-07-13T04:05:55;15.00;99.90
2435;DHT22;1228;51.022;6.764;2023-07-13T04:08:28;15.10;99.90
2435;DHT22;1228;51.022;6.764;2023-07-13T04:10:54;15.10;99.90
2435;DHT22;1228;51.022;6.764;2023-07-13T04:13:20;15.10;99.90
2435;DHT22;1228;51.022;6.764;2023-07-13T04:15:46;15.20;99.90
2435;DHT22;1228;51.022;6.764;2023-07-13T04:18:11;15.20;99.90
2435;DHT22;1228;51.022;6.764;2023-07-13T04:20:37;15.20;99.90
2435;DHT22;1228;51.022;6.764;2023-07-13T04:23:02;15.30;99.90
2435;DHT22;1228;51.022;6.764;2023-07-13T04:25:28;15.30;99.90
2435;DHT22;1228;51.022;6.764;2023-07-13T04:27:54;15.30;99.90
2435;DHT22;1228;51.022;6.764;2023-07-13T04:30:20;15.40;99.90
2435;DHT22;1228;51.022;6.764;2023-07-13T04:32:46;15.50;99.90
2435;DHT22;1228;51.022;6.764;2023-07-13T04:35:12;15.50;99.90
2435;DHT22;1228;51.022;6.764;2023-07-13T04:37:39;15.50;99.90
2435;DHT22;1228;51.022;6.764;2023-07-13T04:40:06;15.60;99.90
2435;DHT22;1228;51.022;6.764;2023-07-13T04:42:32;15.70;99.90
2435;DHT22;1228;51.022;6.764;2023-07-13T04:44:59;15.70;99.90
2435;DHT22;1228;51.022;6.764;2023-07-13T04:47:25;15.80;99.90
2435;DHT22;1228;51.022;6.764;2023-07-13T04:49:51;15.90;99.90
2435;DHT22;1228;51.022;6.764;2023-07-13T04:52:16;16.00;99.90
2435;DHT22;1228;51.022;6.764;2023-07-13T04:54:42;16.10;99.90
2435;DHT22;1228;51.022;6.764;2023-07-13T04:57:07;16.10;99.90
2435;DHT22;1228;51.022;6.764;2023-07-13T04:59:33;16.30;99.90
2435;DHT22;1228;51.022;6.764;2023-07-13T05:01:59;16.40;99.90
2435;DHT22;1228;51.022;6.764;2023-07-13T05:04:25;16.50;99.90
2435;DHT22;1228;51.022;6.764;2023-07-13T05:06:50;16.80;99.90
2435;DHT22;1228;51.022;6.764;2023-07-13T05:09:16;17.00;99.90
2435;DHT22;1228;51.022;6.764;2023-07-13T05:11:42;17.30;99.90
2435;DHT22;1228;51.022;6.764;2023-07-13T05:14:08;17.50;99.90
2435;DHT22;1228;51.022;6.764;2023-07-13T05:16:35;17.70;99.90
2435;DHT22;1228;51.022;6.764;2023-07-13T05:19:01;17.90;99.90
2435;DHT22;1228;51.022;6.764;2023-07-13T05:21:26;18.20;99.90
2435;DHT22;1228;51.022;6.764;2023-07-13T05:23:52;18.40;99.90
2435;DHT22;1228;51.022;6.764;2023-07-13T05:26:17;18.60;99.90
2435;DHT22;1228;51.022;6.764;2023-07-13T05:28:43;18.70;99.90
2435;DHT22;1228;51.022;6.764;2023-07-13T05:31:10;18.90;99.90
2435;DHT22;1228;51.022;6.764;2023-07-13T05:33:35;18.80;99.90
2435;DHT22;1228;51.022;6.764;2023-07-13T05:36:01;18.80;99.90
2435;DHT22;1228;51.022;6.764;2023-07-13T05:38:27;18.70;99.90
2435;DHT22;1228;51.022;6.764;2023-07-13T05:40:54;18.60;99.90
2435;DHT22;1228;51.022;6.764;2023-07-13T05:43:21;18.70;99.90
2435;DHT22;1228;51.022;6.764;2023-07-13T05:45:47;18.90;99.90
2435;DHT22;1228;51.022;6.764;2023-07-13T05:48:12;19.10;99.90
2435;DHT22;1228;51.022;6.764;2023-07-13T05:50:38;19.30;99.90
2435;DHT22;1228;51.022;6.764;2023-07-13T05:53:04;19.20;99.90
2435;DHT22;1228;51.022;6.764;2023-07-13T05:55:30;19.20;99.90
2435;DHT22;1228;51.022;6.764;2023-07-13T05:57:56;19.20;99.90
2435;DHT22;1228;51.022;6.764;2023-07-13T06:00:23;19.10;99.90
2435;DHT22;1228;51.022;6.764;2023-07-13T06:02:49;19.10;99.90
2435;DHT22;1228;51.022;6.764;2023-07-13T06:05:15;18.80;99.90
2435;DHT22;1228;51.022;6.764;2023-07-13T06:07:41;18.70;99.90
2435;DHT22;1228;51.022;6.764;2023-07-13T06:10:07;18.70;99.90
2435;DHT22;1228;51.022;6.764;2023-07-13T06:12:33;18.80;99.90
2435;DHT22;1228;51.022;6.764;2023-07-13T06:14:58;19.10;99.90
2435;DHT22;1228;51.022;6.764;2023-07-13T06:17:24;19.10;99.90
2435;DHT22;1228;51.022;6.764;2023-07-13T06:19:49;19.20;99.90
2435;DHT22;1228;51.022;6.764;2023-07-13T06:22:15;19.30;99.90
2435;DHT22;1228;51.022;6.764;2023-07-13T06:24:41;19.40;99.90
2435;DHT22;1228;51.022;6.764;2023-07-13T06:27:06;19.50;99.90
2435;DHT22;1228;51.022;6.764;2023-07-13T06:29:32;19.50;99.90
2435;DHT22;1228;51.022;6.764;2023-07-13T06:31:58;19.70;99.90
2435;DHT22;1228;51.022;6.764;2023-07-13T06:34:23;19.90;99.90
2435;DHT22;1228;51.022;6.764;2023-07-13T06:36:49;20.20;99.90
2435;DHT22;1228;51.022;6.764;2023-07-13T06:39:14;20.60;99.90
2435;DHT22;1228;51.022;6.764;2023-07-13T06:41:40;21.10;99.90
2435;DHT22;1228;51.022;6.764;2023-07-13T06:44:06;21.60;99.90
2435;DHT22;1228;51.022;6.764;2023-07-13T06:46:32;21.90;99.90
2435;DHT22;1228;51.022;6.764;2023-07-13T06:48:57;22.00;99.90
2435;DHT22;1228;51.022;6.764;2023-07-13T06:51:23;22.20;99.90
2435;DHT22;1228;51.022;6.764;2023-07-13T06:53:48;21.80;99.90
2435;DHT22;1228;51.022;6.764;2023-07-13T06:56:15;21.40;99.90
2435;DHT22;1228;51.022;6.764;2023-07-13T06:58:41;21.40;99.90
2435;DHT22;1228;51.022;6.764;2023-07-13T07:01:06;21.20;99.90
2435;DHT22;1228;51.022;6.764;2023-07-13T07:03:32;21.10;99.90
2435;DHT22;1228;51.022;6.764;2023-07-13T07:06:16;20.90;99.90
2435;DHT22;1228;51.022;6.764;2023-07-13T07:08:42;20.70;99.90
2435;DHT22;1228;51.022;6.764;2023-07-13T07:11:11;20.60;99.90
2435;DHT22;1228;51.022;6.764;2023-07-13T07:13:38;20.50;99.90
2435;DHT22;1228;51.022;6.764;2023-07-13T07:16:03;20.60;99.90
2435;DHT22;1228;51.022;6.764;2023-07-13T07:18:29;20.50;99.90
2435;DHT22;1228;51.022;6.764;2023-07-13T07:20:54;20.30;99.90
2435;DHT22;1228;51.022;6.764;2023-07-13T07:23:20;20.20;99.90
2435;DHT22;1228;51.022;6.764;2023-07-13T07:25:46;20.20;99.90
2435;DHT22;1228;51.022;6.764;2023-07-13T07:28:14;20.20;99.90
2435;DHT22;1228;51.022;6.764;2023-07-13T07:30:44;20.20;99.90
2435;DHT22;1228;51.022;6.764;2023-07-13T07:33:09;20.20;99.90
2435;DHT22;1228;51.022;6.764;2023-07-13T07:35:35;20.00;99.90
2435;DHT22;1228;51.022;6.764;2023-07-13T07:38:00;19.80;99.90
2435;DHT22;1228;51.022;6.764;2023-07-13T07:40:26;19.80;99.90
2435;DHT22;1228;51.022;6.764;2023-07-13T07:42:52;19.70;99.90
2435;DHT22;1228;51.022;6.764;2023-07-13T07:45:18;19.80;99.90
2435;DHT22;1228;51.022;6.764;2023-07-13T07:47:44;19.90;99.90
2435;DHT22;1228;51.022;6.764;2023-07-13T07:50:10;19.80;99.90
2435;DHT22;1228;51.022;6.764;2023-07-13T07:52:35;19.90;99.90
2435;DHT22;1228;51.022;6.764;2023-07-13T07:55:01;20.10;99.90
2435;DHT22;1228;51.022;6.764;2023-07-13T07:57:27;20.40;99.90
2435;DHT22;1228;51.022;6.764;2023-07-13T07:59:52;20.40;99.90
2435;DHT22;1228;51.022;6.764;2023-07-13T08:02:18;20.40;99.90
2435;DHT22;1228;51.022;6.764;2023-07-13T08:04:43;20.60;99.90
2435;DHT22;1228;51.022;6.764;2023-07-13T08:07:09;20.90;99.90
2435;DHT22;1228;51.022;6.764;2023-07-13T08:09:34;21.10;99.90
2435;DHT22;1228;51.022;6.764;2023-07-13T08:12:00;21.30;99.90
2435;DHT22;1228;51.022;6.764;2023-07-13T08:14:26;21.40;99.90
2435;DHT22;1228;51.022;6.764;2023-07-13T08:16:51;21.40;99.90
2435;DHT22;1228;51.022;6.764;2023-07-13T08:19:17;21.50;99.90
2435;DHT22;1228;51.022;6.764;2023-07-13T08:21:42;21.90;99.90
2435;DHT22;1228;51.022;6.764;2023-07-13T08:24:09;22.00;99.90
2435;DHT22;1228;51.022;6.764;2023-07-13T08:26:34;21.70;99.90
2435;DHT22;1228;51.022;6.764;2023-07-13T08:29:00;21.50;99.90
2435;DHT22;1228;51.022;6.764;2023-07-13T08:31:26;21.50;99.90
2435;DHT22;1228;51.022;6.764;2023-07-13T08:33:51;21.60;99.90
2435;DHT22;1228;51.022;6.764;2023-07-13T08:36:17;21.80;99.90
2435;DHT22;1228;51.022;6.764;2023-07-13T08:38:42;21.70;99.90
2435;DHT22;1228;51.022;6.764;2023-07-13T08:41:14;21.60;99.90
2435;DHT22;1228;51.022;6.764;2023-07-13T08:43:41;21.70;99.90
2435;DHT22;1228;51.022;6.764;2023-07-13T08:46:15;21.70;99.90
2435;DHT22;1228;51.022;6.764;2023-07-13T08:48:52;21.80;99.90
2435;DHT22;1228;51.022;6.764;2023-07-13T08:51:40;21.70;99.90
2435;DHT22;1228;51.022;6.764;2023-07-13T08:54:20;21.70;99.90
2435;DHT22;1228;51.022;6.764;2023-07-13T08:56:49;21.90;99.90
2435;DHT22;1228;51.022;6.764;2023-07-13T08:59:21;21.90;99.90
2435;DHT22;1228;51.022;6.764;2023-07-13T09:04:39;22.00;99.90
2435;DHT22;1228;51.022;6.764;2023-07-13T09:15:32;22.70;99.90
2435;DHT22;1228;51.022;6.764;2023-07-13T09:18:33;22.80;99.90
2435;DHT22;1228;51.022;6.764;2023-07-13T09:21:05;22.90;99.90
2435;DHT22;1228;51.022;6.764;2023-07-13T09:23:34;23.20;99.90
2435;DHT22;1228;51.022;6.764;2023-07-13T09:26:07;23.30;99.90
2435;DHT22;1228;51.022;6.764;2023-07-13T09:28:42;23.40;99.90
2435;DHT22;1228;51.022;6.764;2023-07-13T09:31:23;23.40;99.90
2435;DHT22;1228;51.022;6.764;2023-07-13T09:33:49;23.40;99.90
2435;DHT22;1228;51.022;6.764;2023-07-13T09:38:48;23.30;99.90
2435;DHT22;1228;51.022;6.764;2023-07-13T09:41:29;23.50;99.90
2435;DHT22;1228;51.022;6.764;2023-07-13T09:44:17;23.40;99.90
2435;DHT22;1228;51.022;6.764;2023-07-13T09:46:45;23.60;99.90
2435;DHT22;1228;51.022;6.764;2023-07-13T09:49:12;23.70;99.90
2435;DHT22;1228;51.022;6.764;2023-07-13T09:51:40;23.60;99.90
2435;DHT22;1228;51.022;6.764;2023-07-13T09:54:12;23.60;99.90
2435;DHT22;1228;51.022;6.764;2023-07-13T09:56:42;23.40;99.90
2435;DHT22;1228;51.022;6.764;2023-07-13T09:59:19;23.20;99.90
2435;DHT22;1228;51.022;6.764;2023-07-13T10:01:45;23.40;99.90
2435;DHT22;1228;51.022;6.764;2023-07-13T10:04:14;23.70;99.90
2435;DHT22;1228;51.022;6.764;2023-07-13T10:06:41;23.80;99.90
2435;DHT22;1228;51.022;6.764;2023-07-13T10:09:08;23.70;99.90
2435;DHT22;1228;51.022;6.764;2023-07-13T10:11:36;23.40;99.90
2435;DHT22;1228;51.022;6.764;2023-07-13T10:14:17;23.50;99.90
2435;DHT22;1228;51.022;6.764;2023-07-13T10:16:45;23.50;99.90
2435;DHT22;1228;51.022;6.764;2023-07-13T10:21:53;24.30;99.90
2435;DHT22;1228;51.022;6.764;2023-07-13T10:24:30;24.60;99.90
2435;DHT22;1228;51.022;6.764;2023-07-13T10:27:16;25.10;99.90
2435;DHT22;1228;51.022;6.764;2023-07-13T10:32:48;26.30;99.90
2435;DHT22;1228;51.022;6.764;2023-07-13T10:35:16;26.70;99.90
2435;DHT22;1228;51.022;6.764;2023-07-13T10:43:24;27.00;99.90
2435;DHT22;1228;51.022;6.764;2023-07-13T10:45:52;26.70;99.90
2435;DHT22;1228;51.022;6.764;2023-07-13T10:48:21;25.90;99.90
2435;DHT22;1228;51.022;6.764;2023-07-13T10:50:49;25.80;99.90
2435;DHT22;1228;51.022;6.764;2023-07-13T10:53:31;25.60;99.90
2435;DHT22;1228;51.022;6.764;2023-07-13T10:58:36;25.10;99.90
2435;DHT22;1228;51.022;6.764;2023-07-13T11:01:14;25.00;99.90
2435;DHT22;1228;51.022;6.764;2023-07-13T11:08:58;25.00;99.90
2435;DHT22;1228;51.022;6.764;2023-07-13T11:18:51;25.00;99.90
2435;DHT22;1228;51.022;6.764;2023-07-13T11:21:22;25.10;99.90
2435;DHT22;1228;51.022;6.764;2023-07-13T11:24:13;25.00;99.90
2435;DHT22;1228;51.022;6.764;2023-07-13T11:26:40;24.70;99.90
2435;DHT22;1228;51.022;6.764;2023-07-13T11:31:42;24.20;99.90
2435;DHT22;1228;51.022;6.764;2023-07-13T11:34:14;24.20;99.90
2435;DHT22;1228;51.022;6.764;2023-07-13T11:36:43;24.50;99.90
2435;DHT22;1228;51.022;6.764;2023-07-13T11:41:52;25.70;99.90
2435;DHT22;1228;51.022;6.764;2023-07-13T11:44:20;26.30;99.90
2435;DHT22;1228;51.022;6.764;2023-07-13T11:46:57;26.40;99.90
2435;DHT22;1228;51.022;6.764;2023-07-13T11:49:28;26.10;99.90
2435;DHT22;1228;51.022;6.764;2023-07-13T11:51:56;26.10;99.90
2435;DHT22;1228;51.022;6.764;2023-07-13T11:54:26;25.90;99.90
2435;DHT22;1228;51.022;6.764;2023-07-13T11:56:52;25.60;99.90
2435;DHT22;1228;51.022;6.764;2023-07-13T11:59:18;25.60;99.90
2435;DHT22;1228;51.022;6.764;2023-07-13T12:01:50;25.70;99.90
2435;DHT22;1228;51.022;6.764;2023-07-13T12:04:27;25.60;99.90
2435;DHT22;1228;51.022;6.764;2023-07-13T12:07:05;26.10;99.90
2435;DHT22;1228;51.022;6.764;2023-07-13T12:09:32;26.30;99.90
2435;DHT22;1228;51.022;6.764;2023-07-13T12:11:58;26.10;99.90
2435;DHT22;1228;51.022;6.764;2023-07-13T12:14:26;25.70;99.90
2435;DHT22;1228;51.022;6.764;2023-07-13T12:16:53;25.40;99.90
2435;DHT22;1228;51.022;6.764;2023-07-13T12:19:23;25.40;99.90
2435;DHT22;1228;51.022;6.764;2023-07-13T12:21:52;25.40;99.90
2435;DHT22;1228;51.022;6.764;2023-07-13T12:24:20;25.20;99.90
2435;DHT22;1228;51.022;6.764;2023-07-13T12:27:06;25.30;99.90
2435;DHT22;1228;51.022;6.764;2023-07-13T12:29:32;25.60;99.90
2435;DHT22;1228;51.022;6.764;2023-07-13T12:31:58;25.70;99.90
2435;DHT22;1228;51.022;6.764;2023-07-13T12:34:26;25.80;99.90
2435;DHT22;1228;51.022;6.764;2023-07-13T12:37:01;25.70;99.90
2435;DHT22;1228;51.022;6.764;2023-07-13T12:39:38;25.60;99.90
2435;DHT22;1228;51.022;6.764;2023-07-13T12:42:23;25.60;99.90
2435;DHT22;1228;51.022;6.764;2023-07-13T12:44:54;26.00;99.90
2435;DHT22;1228;51.022;6.764;2023-07-13T12:47:21;26.10;99.90
2435;DHT22;1228;51.022;6.764;2023-07-13T12:49:56;26.40;99.90
2435;DHT22;1228;51.022;6.764;2023-07-13T12:52:28;26.70;99.90
2435;DHT22;1228;51.022;6.764;2023-07-13T12:54:58;26.50;99.90
2435;DHT22;1228;51.022;6.764;2023-07-13T12:57:24;26.50;99.90
2435;DHT22;1228;51.022;6.764;2023-07-13T12:59:54;26.30;99.90
2435;DHT22;1228;51.022;6.764;2023-07-13T13:02:33;26.10;99.90
2435;DHT22;1228;51.022;6.764;2023-07-13T13:05:01;26.30;99.90
2435;DHT22;1228;51.022;6.764;2023-07-13T13:07:28;26.40;99.90
2435;DHT22;1228;51.022;6.764;2023-07-13T13:09:55;26.50;99.90
2435;DHT22;1228;51.022;6.764;2023-07-13T13:12:22;26.60;99.90
2435;DHT22;1228;51.022;6.764;2023-07-13T13:14:49;26.40;99.90
2435;DHT22;1228;51.022;6.764;2023-07-13T13:17:30;26.60;99.90
2435;DHT22;1228;51.022;6.764;2023-07-13T13:19:56;26.70;99.90
2435;DHT22;1228;51.022;6.764;2023-07-13T13:22:22;26.70;99.90
2435;DHT22;1228;51.022;6.764;2023-07-13T13:24:48;26.60;99.90
2435;DHT22;1228;51.022;6.764;2023-07-13T13:27:19;26.60;99.90
2435;DHT22;1228;51.022;6.764;2023-07-13T13:29:45;26.70;99.90
2435;DHT22;1228;51.022;6.764;2023-07-13T13:32:14;26.70;99.90
2435;DHT22;1228;51.022;6.764;2023-07-13T13:34:41;26.50;99.90
2435;DHT22;1228;51.022;6.764;2023-07-13T13:37:25;26.20;99.90
2435;DHT22;1228;51.022;6.764;2023-07-13T13:39:51;26.10;99.90
2435;DHT22;1228;51.022;6.764;2023-07-13T13:42:19;26.40;99.90
2435;DHT22;1228;51.022;6.764;2023-07-13T13:44:46;26.80;99.90
2435;DHT22;1228;51.022;6.764;2023-07-13T13:47:27;26.80;99.90
2435;DHT22;1228;51.022;6.764;2023-07-13T13:49:54;26.70;99.90
2435;DHT22;1228;51.022;6.764;2023-07-13T13:52:20;26.60;99.90
2435;DHT22;1228;51.022;6.764;2023-07-13T13:54:46;26.70;99.90
2435;DHT22;1228;51.022;6.764;2023-07-13T13:57:11;27.10;99.90
2435;DHT22;1228;51.022;6.764;2023-07-13T13:59:38;27.60;99.90
2435;DHT22;1228;51.022;6.764;2023-07-13T14:02:21;27.70;99.90
2435;DHT22;1228;51.022;6.764;2023-07-13T14:04:50;27.60;99.90
2435;DHT22;1228;51.022;6.764;2023-07-13T14:07:16;27.60;99.90
2435;DHT22;1228;51.022;6.764;2023-07-13T14:09:41;27.90;99.90
2435;DHT22;1228;51.022;6.764;2023-07-13T14:12:10;28.00;99.90
2435;DHT22;1228;51.022;6.764;2023-07-13T14:14:37;27.80;99.90
2435;DHT22;1228;51.022;6.764;2023-07-13T14:17:03;27.50;99.90
2435;DHT22;1228;51.022;6.764;2023-07-13T14:19:29;27.10;99.90
2435;DHT22;1228;51.022;6.764;2023-07-13T14:21:55;26.90;99.90
2435;DHT22;1228;51.022;6.764;2023-07-13T14:24:20;27.00;99.90
2435;DHT22;1228;51.022;6.764;2023-07-13T14:26:47;27.10;99.90
2435;DHT22;1228;51.022;6.764;2023-07-13T14:29:15;26.80;99.90
2435;DHT22;1228;51.022;6.764;2023-07-13T14:31:43;26.50;99.90
2435;DHT22;1228;51.022;6.764;2023-07-13T14:34:12;26.20;99.90
2435;DHT22;1228;51.022;6.764;2023-07-13T14:36:43;25.90;99.90
2435;DHT22;1228;51.022;6.764;2023-07-13T14:39:17;25.80;99.90
2435;DHT22;1228;51.022;6.764;2023-07-13T14:41:43;26.10;99.90
2435;DHT22;1228;51.022;6.764;2023-07-13T14:44:12;26.30;99.90
2435;DHT22;1228;51.022;6.764;2023-07-13T14:46:38;26.40;99.90
2435;DHT22;1228;51.022;6.764;2023-07-13T14:49:09;26.60;99.90
2435;DHT22;1228;51.022;6.764;2023-07-13T14:51:36;26.60;99.90
2435;DHT22;1228;51.022;6.764;2023-07-13T14:54:04;26.70;99.90
2435;DHT22;1228;51.022;6.764;2023-07-13T14:56:30;26.50;99.90
2435;DHT22;1228;51.022;6.764;2023-07-13T14:58:55;26.70;99.90
2435;DHT22;1228;51.022;6.764;2023-07-13T15:01:21;26.90;99.90
2435;DHT22;1228;51.022;6.764;2023-07-13T15:03:49;26.80;99.90
2435;DHT22;1228;51.022;6.764;2023-07-13T15:06:15;26.30;99.90
2435;DHT22;1228;51.022;6.764;2023-07-13T15:08:41;26.10;99.90
2435;DHT22;1228;51.022;6.764;2023-07-13T15:11:08;25.80;99.90
2435;DHT22;1228;51.022;6.764;2023-07-13T15:13:37;25.50;99.90
2435;DHT22;1228;51.022;6.764;2023-07-13T15:16:04;25.10;99.90
2435;DHT22;1228;51.022;6.764;2023-07-13T15:18:30;24.80;99.90
2435;DHT22;1228;51.022;6.764;2023-07-13T15:20:56;24.60;99.90
2435;DHT22;1228;51.022;6.764;2023-07-13T15:23:25;24.40;99.90
2435;DHT22;1228;51.022;6.764;2023-07-13T15:25:51;24.30;99.90
2435;DHT22;1228;51.022;6.764;2023-07-13T15:28:17;24.10;99.90
2435;DHT22;1228;51.022;6.764;2023-07-13T15:30:45;24.00;99.90
2435;DHT22;1228;51.022;6.764;2023-07-13T15:33:13;23.80;99.90
2435;DHT22;1228;51.022;6.764;2023-07-13T15:35:39;23.70;99.90
2435;DHT22;1228;51.022;6.764;2023-07-13T15:38:18;23.50;99.90
2435;DHT22;1228;51.022;6.764;2023-07-13T15:40:44;23.40;99.90
2435;DHT22;1228;51.022;6.764;2023-07-13T15:43:11;23.20;99.90
2435;DHT22;1228;51.022;6.764;2023-07-13T15:45:38;23.00;99.90
2435;DHT22;1228;51.022;6.764;2023-07-13T15:48:16;22.70;99.90
2435;DHT22;1228;51.022;6.764;2023-07-13T15:50:52;22.50;99.90
2435;DHT22;1228;51.022;6.764;2023-07-13T15:53:21;22.30;99.90
2435;DHT22;1228;51.022;6.764;2023-07-13T15:55:48;22.20;99.90
2435;DHT22;1228;51.022;6.764;2023-07-13T15:58:14;22.10;99.90
2435;DHT22;1228;51.022;6.764;2023-07-13T16:00:40;22.20;99.90
2435;DHT22;1228;51.022;6.764;2023-07-13T16:03:07;22.30;99.90
2435;DHT22;1228;51.022;6.764;2023-07-13T16:05:33;22.40;99.90
2435;DHT22;1228;51.022;6.764;2023-07-13T16:07:59;22.40;99.90
2435;DHT22;1228;51.022;6.764;2023-07-13T16:10:37;22.30;99.90
2435;DHT22;1228;51.022;6.764;2023-07-13T16:13:04;22.30;99.90
2435;DHT22;1228;51.022;6.764;2023-07-13T16:15:32;22.20;99.90
2435;DHT22;1228;51.022;6.764;2023-07-13T16:17:58;22.10;99.90
2435;DHT22;1228;51.022;6.764;2023-07-13T16:20:24;22.00;99.90
2435;DHT22;1228;51.022;6.764;2023-07-13T16:22:53;22.00;99.90
2435;DHT22;1228;51.022;6.764;2023-07-13T16:25:25;21.90;99.90
2435;DHT22;1228;51.022;6.764;2023-07-13T16:27:53;21.90;99.90
2435;DHT22;1228;51.022;6.764;2023-07-13T16:30:24;22.00;99.90
2435;DHT22;1228;51.022;6.764;2023-07-13T16:32:55;22.10;99.90
2435;DHT22;1228;51.022;6.764;2023-07-13T16:35:23;22.10;99.90
2435;DHT22;1228;51.022;6.764;2023-07-13T16:37:50;22.10;99.90
2435;DHT22;1228;51.022;6.764;2023-07-13T16:40:26;22.10;99.90
2435;DHT22;1228;51.022;6.764;2023-07-13T16:42:54;22.10;99.90
2435;DHT22;1228;51.022;6.764;2023-07-13T16:45:21;22.20;99.90
2435;DHT22;1228;51.022;6.764;2023-07-13T16:47:50;22.20;99.90
2435;DHT22;1228;51.022;6.764;2023-07-13T16:50:19;22.20;99.90
2435;DHT22;1228;51.022;6.764;2023-07-13T16:52:45;22.00;99.90
2435;DHT22;1228;51.022;6.764;2023-07-13T16:55:12;21.90;99.90